Baltimore, Maryland
Traffic Map
Current Weather Conditions
Baltimore, Maryland
Broken Clouds
Broken Clouds
73°
Feels Like: 73°
Wind Chill: 73° Ceiling: 6500
Heat Index: 73° Visibility: 10mi
Dew Point: 66° Wind: 8mph
Humidity: 78% Direction: 180° (S)
Pressure: 30.19in Gusts: 0mph
Raw Report DataKBWI 301230Z 18007KT 10SM SCT012 BKN065 BKN130 23/19 A3019 RMK AO2
Traffic Incident Summary
Active as of:
Severity:
Category:
InformationThere was an issue retrieving the traffic information for this location. Please try a different location or try again shortly.
Advertisements
Track Severe Weather on mobile